sensor_id;sensor_type;location;lat;lon;timestamp;pressure;altitude;pressure_sealevel;temperature;humidity
76627;BME280;65519;53.230;10.390;2023-01-28T00:00:25;102562.19;;;1.75;66.65
76627;BME280;65519;53.230;10.390;2023-01-28T00:02:50;102566.72;;;1.66;65.99
76627;BME280;65519;53.230;10.390;2023-01-28T00:05:16;102562.69;;;1.70;65.81
76627;BME280;65519;53.230;10.390;2023-01-28T00:07:41;102563.50;;;1.63;66.64
76627;BME280;65519;53.230;10.390;2023-01-28T00:10:07;102566.22;;;1.71;66.50
76627;BME280;65519;53.230;10.390;2023-01-28T00:12:32;102566.72;;;1.66;66.59
76627;BME280;65519;53.230;10.390;2023-01-28T00:14:58;102572.06;;;1.58;65.58
76627;BME280;65519;53.230;10.390;2023-01-28T00:17:23;102562.81;;;1.53;65.65
76627;BME280;65519;53.230;10.390;2023-01-28T00:19:48;102559.78;;;1.48;65.92
76627;BME280;65519;53.230;10.390;2023-01-28T00:22:14;102556.94;;;1.57;67.42
76627;BME280;65519;53.230;10.390;2023-01-28T00:24:40;102552.09;;;1.61;67.13
76627;BME280;65519;53.230;10.390;2023-01-28T00:27:08;102551.41;;;1.67;67.20
76627;BME280;65519;53.230;10.390;2023-01-28T00:29:34;102553.78;;;1.70;66.24
76627;BME280;65519;53.230;10.390;2023-01-28T00:31:59;102547.41;;;1.71;67.33
76627;BME280;65519;53.230;10.390;2023-01-28T00:34:25;102556.16;;;1.73;67.66
76627;BME280;65519;53.230;10.390;2023-01-28T00:36:51;102556.16;;;1.73;68.16
76627;BME280;65519;53.230;10.390;2023-01-28T00:39:25;102557.66;;;1.75;68.63
76627;BME280;65519;53.230;10.390;2023-01-28T00:41:51;102555.97;;;1.74;68.73
76627;BME280;65519;53.230;10.390;2023-01-28T00:44:18;102550.94;;;1.79;66.94
76627;BME280;65519;53.230;10.390;2023-01-28T00:46:44;102552.09;;;1.77;66.63
76627;BME280;65519;53.230;10.390;2023-01-28T00:49:09;102552.78;;;1.87;66.54
76627;BME280;65519;53.230;10.390;2023-01-28T00:51:35;102557.16;;;1.80;67.85
76627;BME280;65519;53.230;10.390;2023-01-28T00:54:01;102557.00;;;1.81;67.62
76627;BME280;65519;53.230;10.390;2023-01-28T00:56:26;102551.78;;;1.72;67.64
76627;BME280;65519;53.230;10.390;2023-01-28T00:58:52;102553.94;;;1.76;67.23
76627;BME280;65519;53.230;10.390;2023-01-28T01:01:21;102565.56;;;1.77;67.90
76627;BME280;65519;53.230;10.390;2023-01-28T01:03:47;102556.47;;;1.78;67.91
76627;BME280;65519;53.230;10.390;2023-01-28T01:06:21;102563.22;;;1.82;67.45
76627;BME280;65519;53.230;10.390;2023-01-28T01:08:47;102545.03;;;1.68;68.34
76627;BME280;65519;53.230;10.390;2023-01-28T01:11:14;102557.31;;;1.62;68.14
76627;BME280;65519;53.230;10.390;2023-01-28T01:13:40;102564.69;;;1.60;68.60
76627;BME280;65519;53.230;10.390;2023-01-28T01:16:12;102569.06;;;1.61;67.87
76627;BME280;65519;53.230;10.390;2023-01-28T01:18:38;102567.03;;;1.63;67.10
76627;BME280;65519;53.230;10.390;2023-01-28T01:21:07;102571.22;;;1.58;67.23
76627;BME280;65519;53.230;10.390;2023-01-28T01:23:33;102567.56;;;1.67;67.60
76627;BME280;65519;53.230;10.390;2023-01-28T01:25:58;102566.88;;;1.65;67.75
76627;BME280;65519;53.230;10.390;2023-01-28T01:28:24;102561.16;;;1.68;67.81
76627;BME280;65519;53.230;10.390;2023-01-28T01:30:49;102560.63;;;1.56;66.92
76627;BME280;65519;53.230;10.390;2023-01-28T01:33:22;102558.31;;;1.61;67.59
76627;BME280;65519;53.230;10.390;2023-01-28T01:35:52;102567.22;;;1.70;66.96
76627;BME280;65519;53.230;10.390;2023-01-28T01:38:18;102565.19;;;1.64;68.31
76627;BME280;65519;53.230;10.390;2023-01-28T01:40:44;102558.47;;;1.68;68.00
76627;BME280;65519;53.230;10.390;2023-01-28T01:43:20;102556.78;;;1.67;67.16
76627;BME280;65519;53.230;10.390;2023-01-28T01:45:50;102557.16;;;1.72;66.87
76627;BME280;65519;53.230;10.390;2023-01-28T01:48:20;102547.38;;;1.63;66.52
76627;BME280;65519;53.230;10.390;2023-01-28T01:50:57;102546.56;;;1.70;66.27
76627;BME280;65519;53.230;10.390;2023-01-28T01:53:26;102542.84;;;1.63;66.45
76627;BME280;65519;53.230;10.390;2023-01-28T01:55:56;102544.81;;;1.45;66.04
76627;BME280;65519;53.230;10.390;2023-01-28T01:58:25;102545.53;;;1.63;66.43
76627;BME280;65519;53.230;10.390;2023-01-28T02:00:52;102550.41;;;1.68;66.92
76627;BME280;65519;53.230;10.390;2023-01-28T02:03:22;102556.47;;;1.70;66.16
76627;BME280;65519;53.230;10.390;2023-01-28T02:05:51;102562.69;;;1.70;66.96
76627;BME280;65519;53.230;10.390;2023-01-28T02:08:16;102559.47;;;1.67;67.65
76627;BME280;65519;53.230;10.390;2023-01-28T02:13:16;102564.88;;;1.67;67.56
76627;BME280;65519;53.230;10.390;2023-01-28T02:15:43;102564.03;;;1.66;67.32
76627;BME280;65519;53.230;10.390;2023-01-28T02:18:10;102561.50;;;1.65;66.97
76627;BME280;65519;53.230;10.390;2023-01-28T02:26:14;102559.16;;;1.70;66.24
76627;BME280;65519;53.230;10.390;2023-01-28T02:31:25;102559.09;;;1.54;65.55
76627;BME280;65519;53.230;10.390;2023-01-28T02:34:16;102564.84;;;1.59;66.84
76627;BME280;65519;53.230;10.390;2023-01-28T02:39:27;102546.69;;;1.53;67.22
76627;BME280;65519;53.230;10.390;2023-01-28T02:42:03;102555.56;;;1.45;67.51
76627;BME280;65519;53.230;10.390;2023-01-28T02:44:29;102550.03;;;1.46;67.94
76627;BME280;65519;53.230;10.390;2023-01-28T02:46:55;102553.25;;;1.58;66.64
76627;BME280;65519;53.230;10.390;2023-01-28T02:49:52;102550.19;;;1.45;63.60
76627;BME280;65519;53.230;10.390;2023-01-28T02:58:38;102544.50;;;1.48;63.04
76627;BME280;65519;53.230;10.390;2023-01-28T03:04:00;102547.34;;;1.46;64.17
76627;BME280;65519;53.230;10.390;2023-01-28T03:06:36;102543.97;;;1.44;65.32
76627;BME280;65519;53.230;10.390;2023-01-28T03:09:06;102546.19;;;1.49;65.32
76627;BME280;65519;53.230;10.390;2023-01-28T03:14:48;102539.28;;;1.55;65.85
76627;BME280;65519;53.230;10.390;2023-01-28T03:20:31;102536.75;;;1.45;66.22
76627;BME280;65519;53.230;10.390;2023-01-28T03:23:21;102531.41;;;1.53;66.91
76627;BME280;65519;53.230;10.390;2023-01-28T03:26:07;102539.13;;;1.56;65.78
76627;BME280;65519;53.230;10.390;2023-01-28T03:28:53;102537.81;;;1.60;66.15
76627;BME280;65519;53.230;10.390;2023-01-28T03:31:41;102540.31;;;1.54;65.05
76627;BME280;65519;53.230;10.390;2023-01-28T03:34:25;102537.28;;;1.40;65.20
76627;BME280;65519;53.230;10.390;2023-01-28T03:37:10;102545.66;;;1.45;65.71
76627;BME280;65519;53.230;10.390;2023-01-28T03:39:39;102552.19;;;1.43;66.10
76627;BME280;65519;53.230;10.390;2023-01-28T03:42:07;102536.44;;;1.40;66.42
76627;BME280;65519;53.230;10.390;2023-01-28T03:44:33;102539.59;;;1.35;66.22
76627;BME280;65519;53.230;10.390;2023-01-28T03:47:15;102529.38;;;1.39;66.71
76627;BME280;65519;53.230;10.390;2023-01-28T03:49:41;102544.28;;;1.41;66.32
76627;BME280;65519;53.230;10.390;2023-01-28T03:52:08;102543.34;;;1.51;64.61
76627;BME280;65519;53.230;10.390;2023-01-28T03:54:34;102552.41;;;1.50;64.46
76627;BME280;65519;53.230;10.390;2023-01-28T03:56:59;102546.81;;;1.43;65.00
76627;BME280;65519;53.230;10.390;2023-01-28T03:59:25;102546.63;;;1.28;64.99
76627;BME280;65519;53.230;10.390;2023-01-28T04:01:50;102550.16;;;1.29;64.86
76627;BME280;65519;53.230;10.390;2023-01-28T04:04:15;102555.00;;;1.25;65.18
76627;BME280;65519;53.230;10.390;2023-01-28T04:06:55;102556.72;;;1.34;65.85
76627;BME280;65519;53.230;10.390;2023-01-28T04:09:20;102563.09;;;1.33;65.79
76627;BME280;65519;53.230;10.390;2023-01-28T04:11:46;102556.69;;;1.26;66.73
76627;BME280;65519;53.230;10.390;2023-01-28T04:14:12;102557.22;;;1.30;65.93
76627;BME280;65519;53.230;10.390;2023-01-28T04:16:38;102542.19;;;1.19;65.85
76627;BME280;65519;53.230;10.390;2023-01-28T04:19:03;102557.50;;;1.19;63.68
76627;BME280;65519;53.230;10.390;2023-01-28T04:21:28;102562.59;;;1.30;63.93
76627;BME280;65519;53.230;10.390;2023-01-28T04:23:54;102567.75;;;1.23;63.41
76627;BME280;65519;53.230;10.390;2023-01-28T04:26:19;102572.16;;;1.32;64.85
76627;BME280;65519;53.230;10.390;2023-01-28T04:28:44;102564.06;;;1.24;65.00
76627;BME280;65519;53.230;10.390;2023-01-28T04:31:10;102575.69;;;1.33;64.88
76627;BME280;65519;53.230;10.390;2023-01-28T04:33:35;102570.47;;;1.31;64.53
76627;BME280;65519;53.230;10.390;2023-01-28T04:36:00;102568.78;;;1.30;65.23
76627;BME280;65519;53.230;10.390;2023-01-28T04:38:26;102573.78;;;1.17;64.85
76627;BME280;65519;53.230;10.390;2023-01-28T04:40:52;102570.25;;;1.17;65.35
76627;BME280;65519;53.230;10.390;2023-01-28T04:43:18;102564.06;;;1.24;65.24
76627;BME280;65519;53.230;10.390;2023-01-28T04:45:45;102567.44;;;1.26;65.23
76627;BME280;65519;53.230;10.390;2023-01-28T04:48:11;102562.41;;;1.31;65.04
76627;BME280;65519;53.230;10.390;2023-01-28T04:50:36;102554.34;;;1.31;64.54
76627;BME280;65519;53.230;10.390;2023-01-28T04:53:02;102555.34;;;1.30;64.50
76627;BME280;65519;53.230;10.390;2023-01-28T04:55:27;102545.25;;;1.24;64.74
76627;BME280;65519;53.230;10.390;2023-01-28T04:57:52;102547.41;;;1.21;64.46
76627;BME280;65519;53.230;10.390;2023-01-28T05:00:18;102548.94;;;1.23;64.68
76627;BME280;65519;53.230;10.390;2023-01-28T05:02:43;102553.31;;;1.24;65.10
76627;BME280;65519;53.230;10.390;2023-01-28T05:05:09;102543.09;;;1.28;64.24
76627;BME280;65519;53.230;10.390;2023-01-28T05:07:35;102547.56;;;1.11;64.64
76627;BME280;65519;53.230;10.390;2023-01-28T05:10:00;102540.50;;;1.10;65.51
76627;BME280;65519;53.230;10.390;2023-01-28T05:12:26;102551.25;;;1.10;65.35
76627;BME280;65519;53.230;10.390;2023-01-28T05:14:51;102539.19;;;1.14;66.46
76627;BME280;65519;53.230;10.390;2023-01-28T05:17:16;102544.53;;;1.06;64.83
76627;BME280;65519;53.230;10.390;2023-01-28T05:19:42;102532.69;;;0.91;64.10
76627;BME280;65519;53.230;10.390;2023-01-28T05:22:08;102538.59;;;0.94;64.98
76627;BME280;65519;53.230;10.390;2023-01-28T05:24:33;102551.22;;;1.02;65.42
76627;BME280;65519;53.230;10.390;2023-01-28T05:26:58;102548.69;;;1.00;65.48
76627;BME280;65519;53.230;10.390;2023-01-28T05:29:24;102549.13;;;0.88;66.38
76627;BME280;65519;53.230;10.390;2023-01-28T05:31:49;102557.56;;;1.01;66.18
76627;BME280;65519;53.230;10.390;2023-01-28T05:34:15;102550.03;;;0.96;66.38
76627;BME280;65519;53.230;10.390;2023-01-28T05:36:40;102550.22;;;1.03;66.51
76627;BME280;65519;53.230;10.390;2023-01-28T05:39:06;102550.75;;;1.06;66.47
76627;BME280;65519;53.230;10.390;2023-01-28T05:41:32;102548.25;;;1.13;66.04
76627;BME280;65519;53.230;10.390;2023-01-28T05:43:58;102564.63;;;1.02;67.06
76627;BME280;65519;53.230;10.390;2023-01-28T05:46:23;102554.75;;;1.02;67.08
76627;BME280;65519;53.230;10.390;2023-01-28T05:48:51;102538.44;;;0.96;67.58
76627;BME280;65519;53.230;10.390;2023-01-28T05:51:16;102548.22;;;1.05;66.85
76627;BME280;65519;53.230;10.390;2023-01-28T05:53:42;102550.22;;;1.03;66.12
76627;BME280;65519;53.230;10.390;2023-01-28T05:56:08;102545.84;;;1.02;67.60
76627;BME280;65519;53.230;10.390;2023-01-28T05:58:33;102538.44;;;0.96;66.95
76627;BME280;65519;53.230;10.390;2023-01-28T06:00:58;102546.72;;;0.77;66.67
76627;BME280;65519;53.230;10.390;2023-01-28T06:03:24;102537.31;;;0.72;67.17
76627;BME280;65519;53.230;10.390;2023-01-28T06:05:49;102528.91;;;0.42;67.95
76627;BME280;65519;53.230;10.390;2023-01-28T06:08:15;102523.63;;;0.58;68.68
76627;BME280;65519;53.230;10.390;2023-01-28T06:10:40;102527.69;;;0.62;68.21
76627;BME280;65519;53.230;10.390;2023-01-28T06:13:05;102533.94;;;0.70;67.15
76627;BME280;65519;53.230;10.390;2023-01-28T06:15:31;102540.31;;;0.69;67.60
76627;BME280;65519;53.230;10.390;2023-01-28T06:17:57;102534.31;;;0.76;67.13
76627;BME280;65519;53.230;10.390;2023-01-28T06:20:22;102527.88;;;0.68;67.28
76627;BME280;65519;53.230;10.390;2023-01-28T06:22:50;102529.06;;;0.40;67.09
76627;BME280;65519;53.230;10.390;2023-01-28T06:25:19;102535.28;;;0.23;67.03
76627;BME280;65519;53.230;10.390;2023-01-28T06:27:44;102528.81;;;0.33;67.28
76627;BME280;65519;53.230;10.390;2023-01-28T06:30:10;102534.56;;;0.39;67.61
76627;BME280;65519;53.230;10.390;2023-01-28T06:32:36;102527.97;;;0.33;66.54
76627;BME280;65519;53.230;10.390;2023-01-28T06:35:02;102527.56;;;0.46;67.32
76627;BME280;65519;53.230;10.390;2023-01-28T06:37:27;102545.50;;;0.45;67.14
76627;BME280;65519;53.230;10.390;2023-01-28T06:39:53;102532.94;;;0.46;68.16
76627;BME280;65519;53.230;10.390;2023-01-28T06:42:18;102524.16;;;0.35;67.51
76627;BME280;65519;53.230;10.390;2023-01-28T06:44:44;102529.63;;;0.26;67.97
76627;BME280;65519;53.230;10.390;2023-01-28T06:47:09;102527.25;;;0.23;68.56
76627;BME280;65519;53.230;10.390;2023-01-28T06:49:36;102517.00;;;0.18;69.08
76627;BME280;65519;53.230;10.390;2023-01-28T06:52:01;102516.25;;;0.34;68.40
76627;BME280;65519;53.230;10.390;2023-01-28T06:54:26;102527.84;;;0.34;67.05
76627;BME280;65519;53.230;10.390;2023-01-28T06:56:52;102543.66;;;0.46;67.30
76627;BME280;65519;53.230;10.390;2023-01-28T06:59:17;102535.97;;;0.25;67.49
76627;BME280;65519;53.230;10.390;2023-01-28T07:01:42;102539.59;;;0.16;68.65
76627;BME280;65519;53.230;10.390;2023-01-28T07:04:08;102544.97;;;0.16;69.05
76627;BME280;65519;53.230;10.390;2023-01-28T07:06:33;102554.81;;;0.33;70.80
76627;BME280;65519;53.230;10.390;2023-01-28T07:08:58;102557.81;;;0.30;70.21
76627;BME280;65519;53.230;10.390;2023-01-28T07:11:24;102542.69;;;0.21;70.11
76627;BME280;65519;53.230;10.390;2023-01-28T07:13:49;102540.75;;;0.13;71.19
76627;BME280;65519;53.230;10.390;2023-01-28T07:16:15;102543.75;;;0.10;70.85
76627;BME280;65519;53.230;10.390;2023-01-28T07:18:41;102539.41;;;0.09;70.84
76627;BME280;65519;53.230;10.390;2023-01-28T07:21:06;102536.31;;;0.04;71.39
76627;BME280;65519;53.230;10.390;2023-01-28T07:23:32;102536.72;;;-0.09;71.45
76627;BME280;65519;53.230;10.390;2023-01-28T07:26:01;102556.09;;;-0.15;70.87
76627;BME280;65519;53.230;10.390;2023-01-28T07:28:26;102559.25;;;-0.02;71.21
76627;BME280;65519;53.230;10.390;2023-01-28T07:30:52;102551.56;;;0.04;70.58
76627;BME280;65519;53.230;10.390;2023-01-28T07:33:18;102556.75;;;0.23;70.13
76627;BME280;65519;53.230;10.390;2023-01-28T07:35:44;102568.97;;;-0.01;70.29
76627;BME280;65519;53.230;10.390;2023-01-28T07:38:09;102572.94;;;-0.05;71.47
76627;BME280;65519;53.230;10.390;2023-01-28T07:40:35;102579.97;;;-0.21;71.01
76627;BME280;65519;53.230;10.390;2023-01-28T07:43:00;102571.34;;;-0.15;71.10
76627;BME280;65519;53.230;10.390;2023-01-28T07:45:26;102589.19;;;-0.06;71.67
76627;BME280;65519;53.230;10.390;2023-01-28T07:48:02;102582.06;;;0.03;71.48
76627;BME280;65519;53.230;10.390;2023-01-28T07:50:30;102581.13;;;0.12;71.56
76627;BME280;65519;53.230;10.390;2023-01-28T07:52:57;102591.00;;;0.11;71.70
76627;BME280;65519;53.230;10.390;2023-01-28T07:55:23;102592.59;;;0.22;71.37
76627;BME280;65519;53.230;10.390;2023-01-28T07:57:49;102585.78;;;0.27;70.91
76627;BME280;65519;53.230;10.390;2023-01-28T08:00:15;102591.16;;;0.27;71.47
76627;BME280;65519;53.230;10.390;2023-01-28T08:02:41;102588.50;;;0.10;71.23
76627;BME280;65519;53.230;10.390;2023-01-28T08:05:09;102595.03;;;0.33;72.19
76627;BME280;65519;53.230;10.390;2023-01-28T08:07:34;102599.06;;;0.29;71.14
76627;BME280;65519;53.230;10.390;2023-01-28T08:09:59;102610.56;;;0.21;71.05
76627;BME280;65519;53.230;10.390;2023-01-28T08:12:25;102607.47;;;0.34;71.67
76627;BME280;65519;53.230;10.390;2023-01-28T08:14:50;102611.53;;;0.38;71.51
76627;BME280;65519;53.230;10.390;2023-01-28T08:17:16;102604.72;;;0.26;70.72
76627;BME280;65519;53.230;10.390;2023-01-28T08:19:41;102608.47;;;0.15;71.69
76627;BME280;65519;53.230;10.390;2023-01-28T08:22:06;102615.84;;;0.31;71.08
76627;BME280;65519;53.230;10.390;2023-01-28T08:24:32;102614.59;;;0.43;70.94
76627;BME280;65519;53.230;10.390;2023-01-28T08:26:57;102624.25;;;0.36;70.84
76627;BME280;65519;53.230;10.390;2023-01-28T08:29:22;102635.22;;;0.25;71.12
76627;BME280;65519;53.230;10.390;2023-01-28T08:31:48;102627.63;;;0.38;71.89
76627;BME280;65519;53.230;10.390;2023-01-28T08:34:13;102640.81;;;0.31;71.96
76627;BME280;65519;53.230;10.390;2023-01-28T08:36:38;102641.66;;;0.14;71.28
76627;BME280;65519;53.230;10.390;2023-01-28T08:39:04;102644.41;;;0.05;71.91
76627;BME280;65519;53.230;10.390;2023-01-28T08:41:30;102637.75;;;0.09;71.47
76627;BME280;65519;53.230;10.390;2023-01-28T08:43:55;102642.91;;;0.20;71.58
76627;BME280;65519;53.230;10.390;2023-01-28T08:46:20;102640.28;;;0.28;71.46
76627;BME280;65519;53.230;10.390;2023-01-28T08:48:48;102654.59;;;0.36;71.58
76627;BME280;65519;53.230;10.390;2023-01-28T08:51:14;102648.00;;;0.49;71.26
76627;BME280;65519;53.230;10.390;2023-01-28T08:53:39;102648.31;;;0.28;70.64
76627;BME280;65519;53.230;10.390;2023-01-28T08:56:05;102640.19;;;0.38;70.65
76627;BME280;65519;53.230;10.390;2023-01-28T08:58:30;102642.28;;;0.26;70.91
76627;BME280;65519;53.230;10.390;2023-01-28T09:00:56;102651.84;;;0.46;71.20
76627;BME280;65519;53.230;10.390;2023-01-28T09:03:21;102643.78;;;0.46;69.94
76627;BME280;65519;53.230;10.390;2023-01-28T09:05:47;102657.31;;;0.19;69.83
76627;BME280;65519;53.230;10.390;2023-01-28T09:08:14;102650.25;;;0.18;70.32
76627;BME280;65519;53.230;10.390;2023-01-28T09:10:41;102656.91;;;0.14;70.44
76627;BME280;65519;53.230;10.390;2023-01-28T09:13:08;102647.88;;;0.32;70.70
76627;BME280;65519;53.230;10.390;2023-01-28T09:15:34;102649.00;;;0.48;70.08
76627;BME280;65519;53.230;10.390;2023-01-28T09:17:59;102657.75;;;0.50;69.39
76627;BME280;65519;53.230;10.390;2023-01-28T09:20:26;102666.34;;;0.53;69.51
76627;BME280;65519;53.230;10.390;2023-01-28T09:22:51;102663.81;;;0.52;69.41
76627;BME280;65519;53.230;10.390;2023-01-28T09:25:16;102651.38;;;0.51;69.22
76627;BME280;65519;53.230;10.390;2023-01-28T09:27:42;102648.31;;;0.46;69.06
76627;BME280;65519;53.230;10.390;2023-01-28T09:30:08;102651.13;;;0.62;67.74
76627;BME280;65519;53.230;10.390;2023-01-28T09:32:34;102667.25;;;0.62;68.06
76627;BME280;65519;53.230;10.390;2023-01-28T09:35:00;102668.78;;;0.64;67.85
76627;BME280;65519;53.230;10.390;2023-01-28T09:37:25;102670.28;;;0.85;67.97
76627;BME280;65519;53.230;10.390;2023-01-28T09:39:51;102674.56;;;0.78;68.35
76627;BME280;65519;53.230;10.390;2023-01-28T09:48:09;102674.94;;;1.08;67.42
76627;BME280;65519;53.230;10.390;2023-01-28T09:50:40;102682.91;;;1.18;67.53
76627;BME280;65519;53.230;10.390;2023-01-28T09:53:09;102684.22;;;1.14;66.60
76627;BME280;65519;53.230;10.390;2023-01-28T09:55:38;102700.44;;;1.04;67.59
76627;BME280;65519;53.230;10.390;2023-01-28T09:58:06;102693.97;;;1.15;67.36
76627;BME280;65519;53.230;10.390;2023-01-28T10:01:24;102712.78;;;1.15;65.81
76627;BME280;65519;53.230;10.390;2023-01-28T10:04:11;102714.50;;;1.24;65.88
76627;BME280;65519;53.230;10.390;2023-01-28T10:17:52;102698.06;;;1.27;65.64
76627;BME280;65519;53.230;10.390;2023-01-28T10:20:27;102696.69;;;1.49;65.77
76627;BME280;65519;53.230;10.390;2023-01-28T10:23:15;102692.59;;;1.37;64.68
76627;BME280;65519;53.230;10.390;2023-01-28T10:25:44;102700.16;;;1.41;66.04
76627;BME280;65519;53.230;10.390;2023-01-28T10:28:24;102690.44;;;1.40;65.84
76627;BME280;65519;53.230;10.390;2023-01-28T10:30:51;102686.56;;;1.43;65.47
76627;BME280;65519;53.230;10.390;2023-01-28T10:33:37;102679.91;;;1.55;66.06
76627;BME280;65519;53.230;10.390;2023-01-28T10:36:04;102668.44;;;1.45;65.78
76627;BME280;65519;53.230;10.390;2023-01-28T10:38:30;102674.84;;;1.52;65.92
76627;BME280;65519;53.230;10.390;2023-01-28T10:41:01;102658.91;;;1.51;64.99
76627;BME280;65519;53.230;10.390;2023-01-28T10:43:31;102648.81;;;1.53;65.01
76627;BME280;65519;53.230;10.390;2023-01-28T10:48:37;102652.81;;;1.91;64.58
76627;BME280;65519;53.230;10.390;2023-01-28T10:51:06;102643.88;;;1.82;63.96
76627;BME280;65519;53.230;10.390;2023-01-28T10:53:42;102646.91;;;1.87;63.93
76627;BME280;65519;53.230;10.390;2023-01-28T10:56:15;102640.13;;;2.58;62.88
76627;BME280;65519;53.230;10.390;2023-01-28T11:01:38;102635.81;;;3.12;59.54
76627;BME280;65519;53.230;10.390;2023-01-28T11:04:04;102635.28;;;3.63;59.04
76627;BME280;65519;53.230;10.390;2023-01-28T11:06:30;102624.34;;;3.65;58.27
76627;BME280;65519;53.230;10.390;2023-01-28T11:08:56;102623.09;;;3.76;58.08
76627;BME280;65519;53.230;10.390;2023-01-28T11:11:24;102613.28;;;4.06;57.71
76627;BME280;65519;53.230;10.390;2023-01-28T11:13:52;102631.66;;;3.79;57.65
76627;BME280;65519;53.230;10.390;2023-01-28T11:16:20;102628.84;;;3.34;57.42
76627;BME280;65519;53.230;10.390;2023-01-28T11:18:51;102627.63;;;3.36;56.98
76627;BME280;65519;53.230;10.390;2023-01-28T11:21:20;102596.38;;;3.19;57.76
76627;BME280;65519;53.230;10.390;2023-01-28T11:23:50;102600.44;;;3.15;57.15
76627;BME280;65519;53.230;10.390;2023-01-28T11:26:21;102594.97;;;2.92;58.41
76627;BME280;65519;53.230;10.390;2023-01-28T11:28:49;102593.44;;;2.81;59.09
76627;BME280;65519;53.230;10.390;2023-01-28T11:31:16;102576.00;;;2.69;58.60
76627;BME280;65519;53.230;10.390;2023-01-28T11:33:48;102557.81;;;2.63;58.71
76627;BME280;65519;53.230;10.390;2023-01-28T11:36:14;102551.38;;;2.88;58.40
76627;BME280;65519;53.230;10.390;2023-01-28T11:41:22;102541.47;;;2.73;57.86
76627;BME280;65519;53.230;10.390;2023-01-28T11:43:50;102530.00;;;2.71;58.91
76627;BME280;65519;53.230;10.390;2023-01-28T11:49:08;102528.59;;;2.11;59.75
76627;BME280;65519;53.230;10.390;2023-01-28T11:57:24;102513.38;;;2.67;59.53
76627;BME280;65519;53.230;10.390;2023-01-28T12:05:29;102502.22;;;2.86;57.49
76627;BME280;65519;53.230;10.390;2023-01-28T12:11:08;102486.63;;;3.05;57.35
76627;BME280;65519;53.230;10.390;2023-01-28T12:16:26;102501.31;;;3.33;56.58
76627;BME280;65519;53.230;10.390;2023-01-28T12:33:47;102527.00;;;3.75;55.84
76627;BME280;65519;53.230;10.390;2023-01-28T12:41:09;102507.22;;;3.82;54.50
76627;BME280;65519;53.230;10.390;2023-01-28T12:43:47;102515.44;;;4.26;54.57
76627;BME280;65519;53.230;10.390;2023-01-28T12:46:44;102516.31;;;4.04;53.77
76627;BME280;65519;53.230;10.390;2023-01-28T12:52:16;102495.31;;;4.14;53.74
76627;BME280;65519;53.230;10.390;2023-01-28T12:57:29;102501.66;;;3.84;54.50
76627;BME280;65519;53.230;10.390;2023-01-28T13:00:31;102489.06;;;4.14;53.71
76627;BME280;65519;53.230;10.390;2023-01-28T13:06:03;102473.91;;;3.75;55.25
76627;BME280;65519;53.230;10.390;2023-01-28T13:08:30;102478.69;;;3.88;55.04
76627;BME280;65519;53.230;10.390;2023-01-28T13:10:58;102482.16;;;3.96;53.63
76627;BME280;65519;53.230;10.390;2023-01-28T13:15:54;102458.38;;;4.15;54.88
76627;BME280;65519;53.230;10.390;2023-01-28T13:21:00;102458.84;;;4.18;53.70
76627;BME280;65519;53.230;10.390;2023-01-28T13:23:46;102457.66;;;3.60;55.26
76627;BME280;65519;53.230;10.390;2023-01-28T13:28:51;102431.94;;;3.50;56.16
76627;BME280;65519;53.230;10.390;2023-01-28T13:31:19;102425.75;;;3.87;55.15
76627;BME280;65519;53.230;10.390;2023-01-28T13:33:47;102407.72;;;3.87;54.65
76627;BME280;65519;53.230;10.390;2023-01-28T13:39:14;102418.81;;;4.66;53.51
76627;BME280;65519;53.230;10.390;2023-01-28T13:41:49;102410.06;;;4.34;54.48
76627;BME280;65519;53.230;10.390;2023-01-28T13:44:29;102414.59;;;3.90;55.15
76627;BME280;65519;53.230;10.390;2023-01-28T13:46:59;102416.22;;;4.28;55.39
76627;BME280;65519;53.230;10.390;2023-01-28T13:49:53;102430.00;;;4.33;54.47
76627;BME280;65519;53.230;10.390;2023-01-28T13:54:59;102428.91;;;4.43;53.58
76627;BME280;65519;53.230;10.390;2023-01-28T14:03:16;102451.97;;;3.55;56.83
76627;BME280;65519;53.230;10.390;2023-01-28T14:05:52;102462.59;;;3.94;56.76
76627;BME280;65519;53.230;10.390;2023-01-28T14:11:41;102466.59;;;4.21;56.41
76627;BME280;65519;53.230;10.390;2023-01-28T14:19:54;102479.97;;;3.77;57.75
76627;BME280;65519;53.230;10.390;2023-01-28T14:22:21;102483.84;;;3.75;58.33
76627;BME280;65519;53.230;10.390;2023-01-28T14:24:47;102498.59;;;3.64;58.00
76627;BME280;65519;53.230;10.390;2023-01-28T14:32:50;102486.09;;;3.40;59.67
76627;BME280;65519;53.230;10.390;2023-01-28T14:35:30;102477.47;;;3.22;59.87
76627;BME280;65519;53.230;10.390;2023-01-28T14:37:58;102488.97;;;3.39;59.99
76627;BME280;65519;53.230;10.390;2023-01-28T14:40:25;102483.75;;;3.37;60.11
76627;BME280;65519;53.230;10.390;2023-01-28T14:42:54;102470.50;;;3.27;60.26
76627;BME280;65519;53.230;10.390;2023-01-28T14:45:50;102472.91;;;3.22;60.33
76627;BME280;65519;53.230;10.390;2023-01-28T15:01:44;102456.13;;;3.12;62.17
76627;BME280;65519;53.230;10.390;2023-01-28T15:04:39;102460.91;;;3.02;62.68
76627;BME280;65519;53.230;10.390;2023-01-28T15:09:43;102465.78;;;2.99;63.65
76627;BME280;65519;53.230;10.390;2023-01-28T15:12:08;102476.91;;;2.96;63.84
76627;BME280;65519;53.230;10.390;2023-01-28T15:14:34;102478.63;;;2.88;64.11
76627;BME280;65519;53.230;10.390;2023-01-28T15:17:00;102508.97;;;2.74;64.15
76627;BME280;65519;53.230;10.390;2023-01-28T15:19:32;102509.94;;;2.89;65.18
76627;BME280;65519;53.230;10.390;2023-01-28T15:22:02;102501.19;;;2.87;64.59
76627;BME280;65519;53.230;10.390;2023-01-28T15:24:30;102495.81;;;2.87;64.98
76627;BME280;65519;53.230;10.390;2023-01-28T15:26:56;102497.69;;;2.79;65.39
76627;BME280;65519;53.230;10.390;2023-01-28T15:29:35;102504.28;;;2.60;66.52